sensor_id;sensor_type;location;lat;lon;timestamp;temperature;humidity
15259;DHT22;34462;51.368;12.364;2022-07-29T00:01:30;17.70;99.90
15259;DHT22;34462;51.368;12.364;2022-07-29T00:03:58;17.60;99.90
15259;DHT22;34462;51.368;12.364;2022-07-29T00:06:26;17.60;99.90
15259;DHT22;34462;51.368;12.364;2022-07-29T00:08:54;17.60;99.90
15259;DHT22;34462;51.368;12.364;2022-07-29T00:11:22;17.60;99.90
15259;DHT22;34462;51.368;12.364;2022-07-29T00:13:50;17.60;99.90
15259;DHT22;34462;51.368;12.364;2022-07-29T00:16:18;17.60;99.90
15259;DHT22;34462;51.368;12.364;2022-07-29T00:18:48;17.70;99.90
15259;DHT22;34462;51.368;12.364;2022-07-29T00:21:16;17.60;99.90
15259;DHT22;34462;51.368;12.364;2022-07-29T00:23:44;17.70;99.90
15259;DHT22;34462;51.368;12.364;2022-07-29T00:26:13;17.70;99.90
15259;DHT22;34462;51.368;12.364;2022-07-29T00:28:41;17.60;99.90
15259;DHT22;34462;51.368;12.364;2022-07-29T00:31:09;17.60;99.90
15259;DHT22;34462;51.368;12.364;2022-07-29T00:33:37;17.60;99.90
15259;DHT22;34462;51.368;12.364;2022-07-29T00:36:07;17.60;99.90
15259;DHT22;34462;51.368;12.364;2022-07-29T00:38:34;17.60;99.90
15259;DHT22;34462;51.368;12.364;2022-07-29T00:41:02;17.50;99.90
15259;DHT22;34462;51.368;12.364;2022-07-29T00:43:30;17.50;99.90
15259;DHT22;34462;51.368;12.364;2022-07-29T00:45:58;17.40;99.90
15259;DHT22;34462;51.368;12.364;2022-07-29T00:48:26;17.50;99.90
15259;DHT22;34462;51.368;12.364;2022-07-29T00:50:56;17.40;99.90
15259;DHT22;34462;51.368;12.364;2022-07-29T00:53:26;17.40;99.90
15259;DHT22;34462;51.368;12.364;2022-07-29T00:55:55;17.40;99.90
15259;DHT22;34462;51.368;12.364;2022-07-29T00:58:24;17.30;99.90
15259;DHT22;34462;51.368;12.364;2022-07-29T01:00:54;17.30;99.90
15259;DHT22;34462;51.368;12.364;2022-07-29T01:03:22;17.30;99.90
15259;DHT22;34462;51.368;12.364;2022-07-29T01:05:50;17.30;99.90
15259;DHT22;34462;51.368;12.364;2022-07-29T01:08:20;17.30;99.90
15259;DHT22;34462;51.368;12.364;2022-07-29T01:10:51;17.30;99.90
15259;DHT22;34462;51.368;12.364;2022-07-29T01:13:21;17.30;99.90
15259;DHT22;34462;51.368;12.364;2022-07-29T01:15:54;17.30;99.90
15259;DHT22;34462;51.368;12.364;2022-07-29T01:18:32;17.30;99.90
15259;DHT22;34462;51.368;12.364;2022-07-29T01:21:20;17.30;99.90
15259;DHT22;34462;51.368;12.364;2022-07-29T01:24:19;17.20;99.90
15259;DHT22;34462;51.368;12.364;2022-07-29T01:27:14;17.20;99.90
15259;DHT22;34462;51.368;12.364;2022-07-29T01:30:01;17.20;99.90
15259;DHT22;34462;51.368;12.364;2022-07-29T01:32:33;17.20;99.90
15259;DHT22;34462;51.368;12.364;2022-07-29T01:35:07;17.20;99.90
15259;DHT22;34462;51.368;12.364;2022-07-29T01:37:45;17.20;99.90
15259;DHT22;34462;51.368;12.364;2022-07-29T01:40:20;17.10;99.90
15259;DHT22;34462;51.368;12.364;2022-07-29T01:42:54;17.20;99.90
15259;DHT22;34462;51.368;12.364;2022-07-29T01:45:30;17.10;99.90
15259;DHT22;34462;51.368;12.364;2022-07-29T01:48:11;17.10;99.90
15259;DHT22;34462;51.368;12.364;2022-07-29T01:50:47;17.00;99.90
15259;DHT22;34462;51.368;12.364;2022-07-29T01:53:23;17.00;99.90
15259;DHT22;34462;51.368;12.364;2022-07-29T01:56:03;17.00;99.90
15259;DHT22;34462;51.368;12.364;2022-07-29T01:58:35;17.10;99.90
15259;DHT22;34462;51.368;12.364;2022-07-29T02:01:09;17.00;99.90
15259;DHT22;34462;51.368;12.364;2022-07-29T02:03:42;17.00;99.90
15259;DHT22;34462;51.368;12.364;2022-07-29T02:06:16;16.90;99.90
15259;DHT22;34462;51.368;12.364;2022-07-29T02:08:47;17.00;99.90
15259;DHT22;34462;51.368;12.364;2022-07-29T02:11:17;16.90;99.90
15259;DHT22;34462;51.368;12.364;2022-07-29T02:13:46;16.90;99.90
15259;DHT22;34462;51.368;12.364;2022-07-29T02:16:21;16.90;99.90
15259;DHT22;34462;51.368;12.364;2022-07-29T02:18:52;16.90;99.90
15259;DHT22;34462;51.368;12.364;2022-07-29T02:21:24;16.70;99.90
15259;DHT22;34462;51.368;12.364;2022-07-29T02:23:56;16.90;99.90
15259;DHT22;34462;51.368;12.364;2022-07-29T02:26:27;16.90;99.90
15259;DHT22;34462;51.368;12.364;2022-07-29T02:28:59;16.90;99.90
15259;DHT22;34462;51.368;12.364;2022-07-29T02:31:33;16.90;99.90
15259;DHT22;34462;51.368;12.364;2022-07-29T02:34:06;16.90;99.90
15259;DHT22;34462;51.368;12.364;2022-07-29T02:36:37;16.80;99.90
15259;DHT22;34462;51.368;12.364;2022-07-29T02:39:08;16.80;99.90
15259;DHT22;34462;51.368;12.364;2022-07-29T02:41:41;16.80;99.90
15259;DHT22;34462;51.368;12.364;2022-07-29T02:44:12;16.80;99.90
15259;DHT22;34462;51.368;12.364;2022-07-29T02:46:48;16.80;99.90
15259;DHT22;34462;51.368;12.364;2022-07-29T02:49:27;16.80;99.90
15259;DHT22;34462;51.368;12.364;2022-07-29T02:52:04;16.80;99.90
15259;DHT22;34462;51.368;12.364;2022-07-29T02:54:40;16.80;99.90
15259;DHT22;34462;51.368;12.364;2022-07-29T02:57:18;16.80;99.90
15259;DHT22;34462;51.368;12.364;2022-07-29T02:59:51;16.80;99.90
15259;DHT22;34462;51.368;12.364;2022-07-29T03:02:25;16.70;99.90
15259;DHT22;34462;51.368;12.364;2022-07-29T03:04:58;16.70;99.90
15259;DHT22;34462;51.368;12.364;2022-07-29T03:07:29;16.70;99.90
15259;DHT22;34462;51.368;12.364;2022-07-29T03:09:57;16.70;99.90
15259;DHT22;34462;51.368;12.364;2022-07-29T03:12:26;16.80;99.90
15259;DHT22;34462;51.368;12.364;2022-07-29T03:14:57;16.70;99.90
15259;DHT22;34462;51.368;12.364;2022-07-29T03:17:27;16.70;99.90
15259;DHT22;34462;51.368;12.364;2022-07-29T03:19:58;16.70;99.90
15259;DHT22;34462;51.368;12.364;2022-07-29T03:22:27;16.70;99.90
15259;DHT22;34462;51.368;12.364;2022-07-29T03:24:55;16.70;99.90
15259;DHT22;34462;51.368;12.364;2022-07-29T03:27:24;16.70;99.90
15259;DHT22;34462;51.368;12.364;2022-07-29T03:29:52;16.70;99.90
15259;DHT22;34462;51.368;12.364;2022-07-29T03:32:20;16.70;99.90
15259;DHT22;34462;51.368;12.364;2022-07-29T03:34:52;16.70;99.90
15259;DHT22;34462;51.368;12.364;2022-07-29T03:37:20;16.70;99.90
15259;DHT22;34462;51.368;12.364;2022-07-29T03:39:49;16.60;99.90
15259;DHT22;34462;51.368;12.364;2022-07-29T03:42:21;16.60;99.90
15259;DHT22;34462;51.368;12.364;2022-07-29T03:44:59;16.50;99.90
15259;DHT22;34462;51.368;12.364;2022-07-29T03:47:30;16.50;99.90
15259;DHT22;34462;51.368;12.364;2022-07-29T03:50:20;16.40;99.90
15259;DHT22;34462;51.368;12.364;2022-07-29T03:52:49;16.50;99.90
15259;DHT22;34462;51.368;12.364;2022-07-29T03:55:17;16.40;99.90
15259;DHT22;34462;51.368;12.364;2022-07-29T03:57:46;16.40;99.90
15259;DHT22;34462;51.368;12.364;2022-07-29T04:00:17;16.30;99.90
15259;DHT22;34462;51.368;12.364;2022-07-29T04:02:46;16.40;99.90
15259;DHT22;34462;51.368;12.364;2022-07-29T04:05:17;16.30;99.90
15259;DHT22;34462;51.368;12.364;2022-07-29T04:07:47;16.40;99.90
15259;DHT22;34462;51.368;12.364;2022-07-29T04:10:17;16.40;99.90
15259;DHT22;34462;51.368;12.364;2022-07-29T04:12:57;16.50;99.90
15259;DHT22;34462;51.368;12.364;2022-07-29T04:15:26;16.50;99.90
15259;DHT22;34462;51.368;12.364;2022-07-29T04:17:57;16.50;99.90
15259;DHT22;34462;51.368;12.364;2022-07-29T04:20:27;16.50;99.90
15259;DHT22;34462;51.368;12.364;2022-07-29T04:22:55;16.60;99.90
15259;DHT22;34462;51.368;12.364;2022-07-29T04:25:23;16.60;99.90
15259;DHT22;34462;51.368;12.364;2022-07-29T04:27:51;16.70;99.90
15259;DHT22;34462;51.368;12.364;2022-07-29T04:30:29;16.70;99.90
15259;DHT22;34462;51.368;12.364;2022-07-29T04:32:59;16.80;99.90
15259;DHT22;34462;51.368;12.364;2022-07-29T04:35:30;16.90;99.90
15259;DHT22;34462;51.368;12.364;2022-07-29T04:38:05;16.80;99.90
15259;DHT22;34462;51.368;12.364;2022-07-29T04:40:42;16.80;99.90
15259;DHT22;34462;51.368;12.364;2022-07-29T04:43:12;16.80;99.90
15259;DHT22;34462;51.368;12.364;2022-07-29T04:45:41;16.90;99.90
15259;DHT22;34462;51.368;12.364;2022-07-29T04:48:09;16.90;99.90
15259;DHT22;34462;51.368;12.364;2022-07-29T04:50:39;17.00;99.90
15259;DHT22;34462;51.368;12.364;2022-07-29T04:53:08;17.00;99.90
15259;DHT22;34462;51.368;12.364;2022-07-29T04:55:36;17.00;99.90
15259;DHT22;34462;51.368;12.364;2022-07-29T04:58:05;17.00;99.90
15259;DHT22;34462;51.368;12.364;2022-07-29T05:00:33;17.10;99.90
15259;DHT22;34462;51.368;12.364;2022-07-29T05:03:02;17.10;99.90
15259;DHT22;34462;51.368;12.364;2022-07-29T05:05:30;17.10;99.90
15259;DHT22;34462;51.368;12.364;2022-07-29T05:07:59;17.20;99.90
15259;DHT22;34462;51.368;12.364;2022-07-29T05:10:28;17.20;99.90
15259;DHT22;34462;51.368;12.364;2022-07-29T05:12:56;17.40;99.90
15259;DHT22;34462;51.368;12.364;2022-07-29T05:15:24;17.60;99.90
15259;DHT22;34462;51.368;12.364;2022-07-29T05:17:52;17.70;99.90
15259;DHT22;34462;51.368;12.364;2022-07-29T05:20:20;17.70;99.90
15259;DHT22;34462;51.368;12.364;2022-07-29T05:22:52;17.80;99.90
15259;DHT22;34462;51.368;12.364;2022-07-29T05:25:22;18.00;99.90
15259;DHT22;34462;51.368;12.364;2022-07-29T05:28:10;18.20;99.90
15259;DHT22;34462;51.368;12.364;2022-07-29T05:30:38;18.10;99.90
15259;DHT22;34462;51.368;12.364;2022-07-29T05:33:06;18.30;99.90
15259;DHT22;34462;51.368;12.364;2022-07-29T05:35:54;18.30;99.90
15259;DHT22;34462;51.368;12.364;2022-07-29T05:38:26;18.30;99.90
15259;DHT22;34462;51.368;12.364;2022-07-29T05:40:58;18.20;99.90
15259;DHT22;34462;51.368;12.364;2022-07-29T05:43:26;18.40;99.90
15259;DHT22;34462;51.368;12.364;2022-07-29T05:45:54;18.40;99.90
15259;DHT22;34462;51.368;12.364;2022-07-29T05:48:23;18.50;99.90
15259;DHT22;34462;51.368;12.364;2022-07-29T05:50:51;18.60;99.90
15259;DHT22;34462;51.368;12.364;2022-07-29T05:53:20;18.70;99.90
15259;DHT22;34462;51.368;12.364;2022-07-29T05:55:48;18.50;99.90
15259;DHT22;34462;51.368;12.364;2022-07-29T05:58:18;18.50;99.90
15259;DHT22;34462;51.368;12.364;2022-07-29T06:00:46;18.40;99.90
15259;DHT22;34462;51.368;12.364;2022-07-29T06:03:15;18.50;99.90
15259;DHT22;34462;51.368;12.364;2022-07-29T06:05:43;18.50;99.90
15259;DHT22;34462;51.368;12.364;2022-07-29T06:08:11;18.40;99.90
15259;DHT22;34462;51.368;12.364;2022-07-29T06:10:39;18.40;99.90
15259;DHT22;34462;51.368;12.364;2022-07-29T06:13:07;18.50;99.90
15259;DHT22;34462;51.368;12.364;2022-07-29T06:15:36;18.50;99.90
15259;DHT22;34462;51.368;12.364;2022-07-29T06:18:05;18.60;99.90
15259;DHT22;34462;51.368;12.364;2022-07-29T06:20:36;18.70;99.90
15259;DHT22;34462;51.368;12.364;2022-07-29T06:23:05;18.70;99.90
15259;DHT22;34462;51.368;12.364;2022-07-29T06:25:33;18.70;99.90
15259;DHT22;34462;51.368;12.364;2022-07-29T06:28:03;18.70;99.90
15259;DHT22;34462;51.368;12.364;2022-07-29T06:30:31;18.70;99.90
15259;DHT22;34462;51.368;12.364;2022-07-29T06:33:02;18.70;99.90
15259;DHT22;34462;51.368;12.364;2022-07-29T06:35:33;18.80;99.90
15259;DHT22;34462;51.368;12.364;2022-07-29T06:38:07;18.90;99.90
15259;DHT22;34462;51.368;12.364;2022-07-29T06:40:55;19.00;99.90
15259;DHT22;34462;51.368;12.364;2022-07-29T06:43:31;19.10;99.90
15259;DHT22;34462;51.368;12.364;2022-07-29T06:46:18;19.10;99.90
15259;DHT22;34462;51.368;12.364;2022-07-29T06:48:49;19.20;99.90
15259;DHT22;34462;51.368;12.364;2022-07-29T06:51:19;19.40;99.90
15259;DHT22;34462;51.368;12.364;2022-07-29T06:53:50;19.50;99.90
15259;DHT22;34462;51.368;12.364;2022-07-29T06:56:28;19.70;99.90
15259;DHT22;34462;51.368;12.364;2022-07-29T06:58:56;20.00;99.90
15259;DHT22;34462;51.368;12.364;2022-07-29T07:01:27;20.30;99.90
15259;DHT22;34462;51.368;12.364;2022-07-29T07:03:56;20.40;99.90
15259;DHT22;34462;51.368;12.364;2022-07-29T07:06:24;20.60;99.90
15259;DHT22;34462;51.368;12.364;2022-07-29T07:08:53;20.80;99.90
15259;DHT22;34462;51.368;12.364;2022-07-29T07:11:21;21.10;99.90
15259;DHT22;34462;51.368;12.364;2022-07-29T07:13:49;21.50;99.90
15259;DHT22;34462;51.368;12.364;2022-07-29T07:16:18;21.80;99.90
15259;DHT22;34462;51.368;12.364;2022-07-29T07:18:46;22.00;99.90
15259;DHT22;34462;51.368;12.364;2022-07-29T07:21:15;22.30;99.90
15259;DHT22;34462;51.368;12.364;2022-07-29T07:23:45;22.40;99.90
15259;DHT22;34462;51.368;12.364;2022-07-29T07:26:13;22.20;99.90
15259;DHT22;34462;51.368;12.364;2022-07-29T07:28:42;22.20;99.90
15259;DHT22;34462;51.368;12.364;2022-07-29T07:31:10;22.00;99.90
15259;DHT22;34462;51.368;12.364;2022-07-29T07:33:39;21.90;99.90
15259;DHT22;34462;51.368;12.364;2022-07-29T07:36:07;21.60;99.90
15259;DHT22;34462;51.368;12.364;2022-07-29T07:38:36;21.40;99.90
15259;DHT22;34462;51.368;12.364;2022-07-29T07:41:05;21.50;99.90
15259;DHT22;34462;51.368;12.364;2022-07-29T07:43:33;21.50;99.90
15259;DHT22;34462;51.368;12.364;2022-07-29T07:46:01;21.50;99.90
15259;DHT22;34462;51.368;12.364;2022-07-29T07:48:29;21.70;99.90
15259;DHT22;34462;51.368;12.364;2022-07-29T07:50:57;21.70;99.90
15259;DHT22;34462;51.368;12.364;2022-07-29T07:53:25;21.70;99.90
15259;DHT22;34462;51.368;12.364;2022-07-29T07:55:57;21.60;99.90
15259;DHT22;34462;51.368;12.364;2022-07-29T07:58:36;21.60;99.90
15259;DHT22;34462;51.368;12.364;2022-07-29T08:01:05;21.70;99.90
15259;DHT22;34462;51.368;12.364;2022-07-29T08:03:33;21.70;99.90
15259;DHT22;34462;51.368;12.364;2022-07-29T08:06:02;21.70;99.90
15259;DHT22;34462;51.368;12.364;2022-07-29T08:08:30;21.70;99.90
15259;DHT22;34462;51.368;12.364;2022-07-29T08:11:00;21.80;99.90
15259;DHT22;34462;51.368;12.364;2022-07-29T08:13:36;21.80;99.90
15259;DHT22;34462;51.368;12.364;2022-07-29T08:16:05;21.90;99.90
15259;DHT22;34462;51.368;12.364;2022-07-29T08:18:42;21.90;99.90
15259;DHT22;34462;51.368;12.364;2022-07-29T08:21:11;21.80;99.90
15259;DHT22;34462;51.368;12.364;2022-07-29T08:23:42;21.90;99.90
15259;DHT22;34462;51.368;12.364;2022-07-29T08:26:25;22.00;99.90
15259;DHT22;34462;51.368;12.364;2022-07-29T08:28:53;22.10;99.90
15259;DHT22;34462;51.368;12.364;2022-07-29T08:31:21;22.10;99.90
15259;DHT22;34462;51.368;12.364;2022-07-29T08:33:50;22.20;99.90
15259;DHT22;34462;51.368;12.364;2022-07-29T08:36:18;22.40;99.90
15259;DHT22;34462;51.368;12.364;2022-07-29T08:38:47;22.50;99.90
15259;DHT22;34462;51.368;12.364;2022-07-29T08:41:16;22.50;99.90
15259;DHT22;34462;51.368;12.364;2022-07-29T08:43:47;22.70;99.90
15259;DHT22;34462;51.368;12.364;2022-07-29T08:46:16;22.80;99.90
15259;DHT22;34462;51.368;12.364;2022-07-29T08:48:45;23.00;99.90
15259;DHT22;34462;51.368;12.364;2022-07-29T08:51:16;23.10;99.90
15259;DHT22;34462;51.368;12.364;2022-07-29T08:53:46;23.20;99.90
15259;DHT22;34462;51.368;12.364;2022-07-29T08:56:16;23.30;99.90
15259;DHT22;34462;51.368;12.364;2022-07-29T08:58:48;23.30;99.90
15259;DHT22;34462;51.368;12.364;2022-07-29T09:01:23;23.50;99.90
15259;DHT22;34462;51.368;12.364;2022-07-29T09:04:04;23.60;99.90
15259;DHT22;34462;51.368;12.364;2022-07-29T09:06:42;23.60;99.90
15259;DHT22;34462;51.368;12.364;2022-07-29T09:09:12;23.80;99.90
15259;DHT22;34462;51.368;12.364;2022-07-29T09:11:41;23.90;99.90
15259;DHT22;34462;51.368;12.364;2022-07-29T09:14:12;24.10;99.90
15259;DHT22;34462;51.368;12.364;2022-07-29T09:16:49;24.10;99.90
15259;DHT22;34462;51.368;12.364;2022-07-29T09:19:25;24.20;99.90
15259;DHT22;34462;51.368;12.364;2022-07-29T09:21:56;24.40;99.90
15259;DHT22;34462;51.368;12.364;2022-07-29T09:24:25;24.40;99.90
15259;DHT22;34462;51.368;12.364;2022-07-29T09:26:55;24.50;99.90
15259;DHT22;34462;51.368;12.364;2022-07-29T09:29:25;24.60;99.90
15259;DHT22;34462;51.368;12.364;2022-07-29T09:31:58;24.70;99.90
15259;DHT22;34462;51.368;12.364;2022-07-29T09:34:28;24.70;99.90
15259;DHT22;34462;51.368;12.364;2022-07-29T09:36:58;24.90;99.90
15259;DHT22;34462;51.368;12.364;2022-07-29T09:39:28;24.80;99.90
15259;DHT22;34462;51.368;12.364;2022-07-29T09:42:00;24.90;99.90
15259;DHT22;34462;51.368;12.364;2022-07-29T09:44:43;24.90;99.90
15259;DHT22;34462;51.368;12.364;2022-07-29T09:47:17;25.00;99.90
15259;DHT22;34462;51.368;12.364;2022-07-29T09:49:53;25.00;99.90
15259;DHT22;34462;51.368;12.364;2022-07-29T09:52:25;25.10;99.90
15259;DHT22;34462;51.368;12.364;2022-07-29T09:55:04;25.20;99.90
15259;DHT22;34462;51.368;12.364;2022-07-29T09:57:33;25.20;99.90
15259;DHT22;34462;51.368;12.364;2022-07-29T10:00:05;25.40;99.90
15259;DHT22;34462;51.368;12.364;2022-07-29T10:02:37;25.40;99.90
15259;DHT22;34462;51.368;12.364;2022-07-29T10:05:16;25.30;99.90
15259;DHT22;34462;51.368;12.364;2022-07-29T10:07:48;25.30;99.90
15259;DHT22;34462;51.368;12.364;2022-07-29T10:10:22;25.30;99.90
15259;DHT22;34462;51.368;12.364;2022-07-29T10:12:54;25.40;99.90
15259;DHT22;34462;51.368;12.364;2022-07-29T10:15:34;25.40;99.90
15259;DHT22;34462;51.368;12.364;2022-07-29T10:18:06;25.50;99.90
15259;DHT22;34462;51.368;12.364;2022-07-29T10:20:36;25.40;99.90
15259;DHT22;34462;51.368;12.364;2022-07-29T10:23:05;25.40;99.90
15259;DHT22;34462;51.368;12.364;2022-07-29T10:25:33;25.40;99.90
15259;DHT22;34462;51.368;12.364;2022-07-29T10:28:02;25.40;99.90
15259;DHT22;34462;51.368;12.364;2022-07-29T10:30:32;25.40;99.90
15259;DHT22;34462;51.368;12.364;2022-07-29T10:33:12;25.60;99.90
15259;DHT22;34462;51.368;12.364;2022-07-29T10:36:12;25.60;99.90
15259;DHT22;34462;51.368;12.364;2022-07-29T10:38:55;25.70;99.90
15259;DHT22;34462;51.368;12.364;2022-07-29T10:42:02;25.80;99.90
15259;DHT22;34462;51.368;12.364;2022-07-29T10:44:42;25.90;99.90
15259;DHT22;34462;51.368;12.364;2022-07-29T10:47:24;25.80;99.90
15259;DHT22;34462;51.368;12.364;2022-07-29T10:49:58;25.70;99.90
15259;DHT22;34462;51.368;12.364;2022-07-29T10:55:34;25.70;99.90
15259;DHT22;34462;51.368;12.364;2022-07-29T10:58:16;25.80;99.90
15259;DHT22;34462;51.368;12.364;2022-07-29T11:00:46;26.00;99.90
15259;DHT22;34462;51.368;12.364;2022-07-29T11:03:45;26.00;99.90
15259;DHT22;34462;51.368;12.364;2022-07-29T11:06:19;26.20;99.20
15259;DHT22;34462;51.368;12.364;2022-07-29T11:09:16;26.20;98.90
15259;DHT22;34462;51.368;12.364;2022-07-29T11:12:04;26.20;98.90
15259;DHT22;34462;51.368;12.364;2022-07-29T11:14:55;26.30;99.20
15259;DHT22;34462;51.368;12.364;2022-07-29T11:17:26;26.30;98.90
15259;DHT22;34462;51.368;12.364;2022-07-29T11:20:39;26.40;98.40
15259;DHT22;34462;51.368;12.364;2022-07-29T11:23:24;26.50;98.80
15259;DHT22;34462;51.368;12.364;2022-07-29T11:26:16;26.80;97.90
15259;DHT22;34462;51.368;12.364;2022-07-29T11:28:52;26.70;98.00
15259;DHT22;34462;51.368;12.364;2022-07-29T11:31:34;26.70;98.50
15259;DHT22;34462;51.368;12.364;2022-07-29T11:34:18;26.70;97.80
15259;DHT22;34462;51.368;12.364;2022-07-29T11:37:21;26.70;97.60
15259;DHT22;34462;51.368;12.364;2022-07-29T11:40:14;26.70;97.10
15259;DHT22;34462;51.368;12.364;2022-07-29T11:42:45;26.70;97.00
15259;DHT22;34462;51.368;12.364;2022-07-29T11:45:22;26.80;97.30
15259;DHT22;34462;51.368;12.364;2022-07-29T11:48:16;26.90;97.20
15259;DHT22;34462;51.368;12.364;2022-07-29T11:50:56;26.90;97.20
15259;DHT22;34462;51.368;12.364;2022-07-29T11:53:27;27.10;97.40
15259;DHT22;34462;51.368;12.364;2022-07-29T11:55:59;27.20;96.80
15259;DHT22;34462;51.368;12.364;2022-07-29T11:58:30;27.30;97.30
15259;DHT22;34462;51.368;12.364;2022-07-29T12:00:59;27.30;96.60
15259;DHT22;34462;51.368;12.364;2022-07-29T12:03:31;27.30;96.20
15259;DHT22;34462;51.368;12.364;2022-07-29T12:06:02;27.30;96.10
15259;DHT22;34462;51.368;12.364;2022-07-29T12:08:40;27.30;96.20
15259;DHT22;34462;51.368;12.364;2022-07-29T12:11:18;27.30;96.80
15259;DHT22;34462;51.368;12.364;2022-07-29T12:13:49;27.40;96.50
15259;DHT22;34462;51.368;12.364;2022-07-29T12:16:18;27.40;96.60
15259;DHT22;34462;51.368;12.364;2022-07-29T12:18:59;27.50;96.50
15259;DHT22;34462;51.368;12.364;2022-07-29T12:21:41;27.50;96.40
15259;DHT22;34462;51.368;12.364;2022-07-29T12:24:24;27.60;96.20
15259;DHT22;34462;51.368;12.364;2022-07-29T12:26:54;27.70;95.90
15259;DHT22;34462;51.368;12.364;2022-07-29T12:29:24;27.70;96.20
15259;DHT22;34462;51.368;12.364;2022-07-29T12:32:02;27.70;96.20
15259;DHT22;34462;51.368;12.364;2022-07-29T12:34:40;27.80;96.30
15259;DHT22;34462;51.368;12.364;2022-07-29T12:37:09;27.80;96.60
15259;DHT22;34462;51.368;12.364;2022-07-29T12:39:38;27.90;97.00
15259;DHT22;34462;51.368;12.364;2022-07-29T12:42:11;28.00;96.60
15259;DHT22;34462;51.368;12.364;2022-07-29T12:44:48;28.00;96.40
15259;DHT22;34462;51.368;12.364;2022-07-29T12:47:18;27.90;96.30
15259;DHT22;34462;51.368;12.364;2022-07-29T12:49:48;27.80;96.50
15259;DHT22;34462;51.368;12.364;2022-07-29T12:52:24;27.70;96.50
15259;DHT22;34462;51.368;12.364;2022-07-29T12:54:54;27.80;96.50
15259;DHT22;34462;51.368;12.364;2022-07-29T12:57:23;27.90;96.60
15259;DHT22;34462;51.368;12.364;2022-07-29T13:00:04;28.10;96.30
15259;DHT22;34462;51.368;12.364;2022-07-29T13:02:35;28.30;96.00
15259;DHT22;34462;51.368;12.364;2022-07-29T13:05:06;28.40;95.80
15259;DHT22;34462;51.368;12.364;2022-07-29T13:07:36;28.40;95.90
15259;DHT22;34462;51.368;12.364;2022-07-29T13:10:24;28.30;96.00
15259;DHT22;34462;51.368;12.364;2022-07-29T13:13:03;28.20;96.00
15259;DHT22;34462;51.368;12.364;2022-07-29T13:15:33;28.20;96.20
15259;DHT22;34462;51.368;12.364;2022-07-29T13:18:02;28.30;96.20
15259;DHT22;34462;51.368;12.364;2022-07-29T13:20:31;28.40;95.60
15259;DHT22;34462;51.368;12.364;2022-07-29T13:23:01;28.50;95.80
15259;DHT22;34462;51.368;12.364;2022-07-29T13:25:31;28.70;95.60
15259;DHT22;34462;51.368;12.364;2022-07-29T13:28:00;28.70;95.90
15259;DHT22;34462;51.368;12.364;2022-07-29T13:30:29;28.90;95.60
15259;DHT22;34462;51.368;12.364;2022-07-29T13:32:57;29.10;95.30
15259;DHT22;34462;51.368;12.364;2022-07-29T13:35:25;29.10;95.20
15259;DHT22;34462;51.368;12.364;2022-07-29T13:37:56;29.30;95.00
15259;DHT22;34462;51.368;12.364;2022-07-29T13:40:24;29.40;94.90
15259;DHT22;34462;51.368;12.364;2022-07-29T13:42:54;29.50;94.90
15259;DHT22;34462;51.368;12.364;2022-07-29T13:45:22;29.50;94.70
15259;DHT22;34462;51.368;12.364;2022-07-29T13:47:54;29.50;94.70
15259;DHT22;34462;51.368;12.364;2022-07-29T13:50:22;29.40;94.80
15259;DHT22;34462;51.368;12.364;2022-07-29T13:52:51;29.40;94.60
15259;DHT22;34462;51.368;12.364;2022-07-29T13:55:19;29.30;94.60
15259;DHT22;34462;51.368;12.364;2022-07-29T13:57:47;29.00;94.50
15259;DHT22;34462;51.368;12.364;2022-07-29T14:00:17;28.90;94.70
15259;DHT22;34462;51.368;12.364;2022-07-29T14:02:45;28.80;95.00
15259;DHT22;34462;51.368;12.364;2022-07-29T14:05:13;28.80;95.00
15259;DHT22;34462;51.368;12.364;2022-07-29T14:07:41;28.70;95.10
15259;DHT22;34462;51.368;12.364;2022-07-29T14:10:09;28.50;94.90
15259;DHT22;34462;51.368;12.364;2022-07-29T14:12:39;28.40;95.00
15259;DHT22;34462;51.368;12.364;2022-07-29T14:15:23;28.40;95.10
15259;DHT22;34462;51.368;12.364;2022-07-29T14:17:51;28.40;95.30
15259;DHT22;34462;51.368;12.364;2022-07-29T14:20:22;28.40;95.30
15259;DHT22;34462;51.368;12.364;2022-07-29T14:22:50;28.50;94.70
15259;DHT22;34462;51.368;12.364;2022-07-29T14:25:25;28.40;94.80
15259;DHT22;34462;51.368;12.364;2022-07-29T14:27:53;28.40;94.60
15259;DHT22;34462;51.368;12.364;2022-07-29T14:30:25;28.30;94.90
15259;DHT22;34462;51.368;12.364;2022-07-29T14:32:57;28.10;94.90
15259;DHT22;34462;51.368;12.364;2022-07-29T14:35:28;28.00;95.20
15259;DHT22;34462;51.368;12.364;2022-07-29T14:38:05;28.10;95.10
15259;DHT22;34462;51.368;12.364;2022-07-29T14:40:40;28.00;95.30
15259;DHT22;34462;51.368;12.364;2022-07-29T14:43:09;27.90;95.50
15259;DHT22;34462;51.368;12.364;2022-07-29T14:45:38;27.80;95.70
15259;DHT22;34462;51.368;12.364;2022-07-29T14:48:06;27.90;95.50
15259;DHT22;34462;51.368;12.364;2022-07-29T14:50:34;28.00;95.50
15259;DHT22;34462;51.368;12.364;2022-07-29T14:53:03;28.10;95.60
15259;DHT22;34462;51.368;12.364;2022-07-29T14:55:31;28.20;95.30
15259;DHT22;34462;51.368;12.364;2022-07-29T14:57:59;28.20;95.20
15259;DHT22;34462;51.368;12.364;2022-07-29T15:00:39;28.30;95.30
15259;DHT22;34462;51.368;12.364;2022-07-29T15:03:07;28.30;95.30
15259;DHT22;34462;51.368;12.364;2022-07-29T15:05:37;28.30;95.40
15259;DHT22;34462;51.368;12.364;2022-07-29T15:08:05;28.30;95.50
15259;DHT22;34462;51.368;12.364;2022-07-29T15:10:34;28.40;95.50
15259;DHT22;34462;51.368;12.364;2022-07-29T15:13:02;28.30;95.40
15259;DHT22;34462;51.368;12.364;2022-07-29T15:15:30;28.30;95.60
15259;DHT22;34462;51.368;12.364;2022-07-29T15:18:00;28.40;95.50
15259;DHT22;34462;51.368;12.364;2022-07-29T15:20:28;28.40;95.50
15259;DHT22;34462;51.368;12.364;2022-07-29T15:22:56;28.30;95.50
15259;DHT22;34462;51.368;12.364;2022-07-29T15:25:25;28.30;95.60
15259;DHT22;34462;51.368;12.364;2022-07-29T15:27:54;28.30;95.90
15259;DHT22;34462;51.368;12.364;2022-07-29T15:30:27;28.20;95.70
15259;DHT22;34462;51.368;12.364;2022-07-29T15:33:01;28.20;95.60
15259;DHT22;34462;51.368;12.364;2022-07-29T15:35:30;28.30;95.60
15259;DHT22;34462;51.368;12.364;2022-07-29T15:37:58;28.20;95.60
15259;DHT22;34462;51.368;12.364;2022-07-29T15:40:26;28.30;95.70
15259;DHT22;34462;51.368;12.364;2022-07-29T15:42:55;28.20;95.60
15259;DHT22;34462;51.368;12.364;2022-07-29T15:45:24;28.30;95.60
15259;DHT22;34462;51.368;12.364;2022-07-29T15:47:57;28.40;95.80
15259;DHT22;34462;51.368;12.364;2022-07-29T15:50:27;28.40;95.80